Time;durP1;ratioP1;P1;durP2;ratioP2;P2;SDS_P1;SDS_P2;PMS_P1;PMS_P2;Temp;Humidity;BMP_temperature;BMP_pressure;BME280_temperature;BME280_humidity;BME280_pressure;Samples;Min_cycle;Max_cycle;Signal;HPM_P1;HPM_P2
2024/04/15 07:54:28;;;;;;;;;;;;;;;4.90;100.00;99298.25;5316565;26;19933;-86
2024/04/15 07:56:54;;;;;;;;;;;;;;;4.97;100.00;99298.09;5327054;26;19930;-86
2024/04/15 07:59:19;;;;;;;;;;;;;;;4.99;100.00;99293.63;5298132;26;19930;-90
2024/04/15 08:01:44;;;;;;;;;;;;;;;5.01;100.00;99294.44;5326642;26;19931;-87
2024/04/15 08:04:09;;;;;;;;;;;;;;;5.04;100.00;99299.63;5324995;26;19942;-87
2024/04/15 08:06:35;;;;;;;;;;;;;;;5.04;100.00;99284.75;5292670;26;19931;-87
2024/04/15 08:09:00;;;;;;;;;;;;;;;5.03;100.00;99282.16;5295126;26;19954;-87
2024/04/15 08:11:25;;;;;;;;;;;;;;;5.01;100.00;99289.19;5325526;26;19930;-86
2024/04/15 08:13:51;;;;;;;;;;;;;;;5.02;100.00;99296.19;5268621;26;19931;-86
2024/04/15 08:16:16;;;;;;;;;;;;;;;5.01;100.00;99279.56;5326445;26;19930;-87
2024/04/15 08:18:42;;;;;;;;;;;;;;;5.05;100.00;99280.34;5326459;26;20264;-86
2024/04/15 08:21:09;;;;;;;;;;;;;;;5.03;100.00;99272.50;5294883;26;20198;-86
2024/04/15 08:23:34;;;;;;;;;;;;;;;5.06;100.00;99264.53;5296109;26;19931;-86
2024/04/15 08:25:59;;;;;;;;;;;;;;;5.07;100.00;99254.88;5326098;26;20311;-86
2024/04/15 08:28:25;;;;;;;;;;;;;;;5.01;100.00;99248.06;5325621;26;20348;-88
2024/04/15 08:30:50;;;;;;;;;;;;;;;5.10;100.00;99236.41;5280896;26;20021;-86
2024/04/15 08:33:15;;;;;;;;;;;;;;;5.05;100.00;99240.94;5295404;26;19945;-90
2024/04/15 08:35:41;;;;;;;;;;;;;;;5.13;100.00;99256.50;5298594;26;19962;-88
2024/04/15 08:38:07;;;;;;;;;;;;;;;5.18;100.00;99237.06;5294755;26;19931;-89
2024/04/15 08:40:32;;;;;;;;;;;;;;;5.08;100.00;99230.38;5327064;26;20358;-88
2024/04/15 08:43:01;;;;;;;;;;;;;;;5.13;100.00;99236.34;5322284;26;19942;-88
2024/04/15 08:45:27;;;;;;;;;;;;;;;5.14;100.00;99232.81;5295305;26;19949;-88
2024/04/15 08:47:53;;;;;;;;;;;;;;;5.13;100.00;99240.72;5328851;26;20268;-88
2024/04/15 08:50:22;;;;;;;;;;;;;;;5.08;100.00;99233.00;5312098;26;20012;-88
2024/04/15 08:52:50;;;;;;;;;;;;;;;5.18;100.00;99239.69;5324927;26;20331;-87
2024/04/15 08:55:15;;;;;;;;;;;;;;;5.13;100.00;99241.59;5296931;26;19934;-85
2024/04/15 08:57:45;;;;;;;;;;;;;;;5.16;100.00;99236.25;5298078;26;20001;-92
2024/04/15 09:00:12;;;;;;;;;;;;;;;5.19;100.00;99219.53;5295367;26;20025;-89
2024/04/15 09:02:37;;;;;;;;;;;;;;;5.16;100.00;99220.47;5328482;26;20419;-87
2024/04/15 09:05:03;;;;;;;;;;;;;;;5.13;100.00;99215.31;5326781;26;19942;-86
2024/04/15 09:07:28;;;;;;;;;;;;;;;5.12;100.00;99207.50;5325089;26;19941;-87
2024/04/15 09:09:53;;;;;;;;;;;;;;;5.13;100.00;99209.22;5298273;26;19937;-88
2024/04/15 09:12:19;;;;;;;;;;;;;;;5.24;100.00;99202.72;5327408;26;20370;-86
2024/04/15 09:14:44;;;;;;;;;;;;;;;5.13;100.00;99194.31;5327365;26;19931;-87
2024/04/15 09:17:12;;;;;;;;;;;;;;;5.32;100.00;99186.72;5328730;26;19937;-87
2024/04/15 09:19:41;;;;;;;;;;;;;;;5.21;100.00;99194.94;5327431;26;19931;-86
2024/04/15 09:22:07;;;;;;;;;;;;;;;5.21;100.00;99180.94;5295577;26;19963;-86
2024/04/15 09:24:32;;;;;;;;;;;;;;;5.18;100.00;99181.91;5325970;26;20275;-85
2024/04/15 09:27:00;;;;;;;;;;;;;;;5.19;100.00;99183.63;5296011;26;19999;-86
2024/04/15 09:29:25;;;;;;;;;;;;;;;5.21;100.00;99181.81;5306523;26;19931;-86
2024/04/15 09:31:50;;;;;;;;;;;;;;;5.24;100.00;99184.34;5307463;27;19945;-87
2024/04/15 09:34:16;;;;;;;;;;;;;;;5.16;100.00;99183.72;5307635;27;19985;-85
2024/04/15 09:36:41;;;;;;;;;;;;;;;5.16;100.00;99173.22;5306040;27;19931;-87
2024/04/15 09:39:10;;;;;;;;;;;;;;;5.08;100.00;99172.59;5307809;27;19938;-90
2024/04/15 09:41:38;;;;;;;;;;;;;;;5.20;100.00;99173.97;5307530;27;19985;-90
2024/04/15 09:44:03;;;;;;;;;;;;;;;5.21;100.00;99158.16;5307044;27;19942;-90
2024/04/15 09:46:32;;;;;;;;;;;;;;;5.32;100.00;99149.94;5307187;27;19955;-85
2024/04/15 09:48:57;;;;;;;;;;;;;;;5.36;100.00;99163.84;5306000;27;19934;-88
2024/04/15 09:51:23;;;;;;;;;;;;;;;5.26;100.00;99148.41;5274843;27;19948;-87
2024/04/15 09:53:52;;;;;;;;;;;;;;;5.22;100.00;99162.53;5316526;26;19941;-88
2024/04/15 09:56:27;;;;;;;;;;;;;;;5.36;100.00;99158.59;5298782;26;19977;-87
2024/04/15 09:58:56;;;;;;;;;;;;;;;5.26;100.00;99152.78;5314234;26;19942;-86
2024/04/15 10:01:25;;;;;;;;;;;;;;;5.25;100.00;99136.16;5327734;26;19930;-85
2024/04/15 10:03:52;;;;;;;;;;;;;;;5.36;100.00;99138.44;5328841;26;19930;-86
2024/04/15 10:06:22;;;;;;;;;;;;;;;5.28;100.00;99143.94;5328060;26;19999;-84
2024/04/15 10:08:47;;;;;;;;;;;;;;;5.35;100.00;99130.63;5328415;26;20005;-87
2024/04/15 10:11:16;;;;;;;;;;;;;;;5.34;100.00;99121.00;5330115;26;20365;-88
2024/04/15 10:13:41;;;;;;;;;;;;;;;5.30;100.00;99109.75;5330272;26;19938;-90
2024/04/15 10:16:16;;;;;;;;;;;;;;;5.25;100.00;99120.41;5293306;26;19931;-91
2024/04/15 10:18:44;;;;;;;;;;;;;;;5.29;100.00;99102.75;5327866;26;19934;-87
2024/04/15 10:21:09;;;;;;;;;;;;;;;5.43;100.00;99103.16;5329732;26;19939;-86
2024/04/15 10:23:34;;;;;;;;;;;;;;;5.37;100.00;99100.75;5330361;26;20009;-87
2024/04/15 10:26:00;;;;;;;;;;;;;;;5.33;100.00;99108.78;5311728;26;19945;-86
2024/04/15 10:28:25;;;;;;;;;;;;;;;5.26;100.00;99084.47;5297326;26;19938;-87
2024/04/15 10:30:50;;;;;;;;;;;;;;;5.27;100.00;99078.31;5329124;26;19930;-86
2024/04/15 10:33:16;;;;;;;;;;;;;;;5.26;100.00;99073.97;5299316;26;19938;-88
2024/04/15 10:35:41;;;;;;;;;;;;;;;5.28;100.00;99061.63;5300175;26;20362;-87
2024/04/15 10:38:08;;;;;;;;;;;;;;;5.44;100.00;99064.59;5297180;26;20000;-87
2024/04/15 10:40:46;;;;;;;;;;;;;;;5.45;100.00;99074.22;5299829;26;19991;-86
2024/04/15 10:43:12;;;;;;;;;;;;;;;5.30;100.00;99064.22;5297490;26;19958;-89
2024/04/15 10:45:38;;;;;;;;;;;;;;;5.31;100.00;99063.31;5329460;26;19937;-87
2024/04/15 10:48:03;;;;;;;;;;;;;;;5.50;100.00;99048.63;5325097;26;20381;-87
2024/04/15 10:50:29;;;;;;;;;;;;;;;5.46;100.00;99039.16;5329314;26;19946;-88
2024/04/15 10:52:54;;;;;;;;;;;;;;;5.42;100.00;99043.63;5329965;26;19938;-89
2024/04/15 10:55:23;;;;;;;;;;;;;;;5.37;100.00;99035.06;5298495;26;19934;-90
2024/04/15 10:57:49;;;;;;;;;;;;;;;5.42;100.00;99024.41;5329409;26;20005;-89
2024/04/15 11:00:16;;;;;;;;;;;;;;;5.38;100.00;99018.41;5329342;26;20270;-89
2024/04/15 11:02:42;;;;;;;;;;;;;;;5.33;100.00;99024.69;5326442;26;20369;-89
2024/04/15 11:05:07;;;;;;;;;;;;;;;5.35;100.00;99013.25;5329278;26;20282;-90
2024/04/15 11:07:33;;;;;;;;;;;;;;;5.48;100.00;99011.06;5298209;26;19965;-89
2024/04/15 11:09:58;;;;;;;;;;;;;;;5.47;100.00;99011.94;5317662;26;19930;-87
2024/04/15 11:12:23;;;;;;;;;;;;;;;5.47;100.00;99001.44;5281121;27;19938;-87
2024/04/15 11:14:52;;;;;;;;;;;;;;;5.62;100.00;98998.28;5281286;27;19934;-86
2024/04/15 11:17:22;;;;;;;;;;;;;;;5.59;100.00;98969.50;5281661;27;20001;-87
2024/04/15 11:19:57;;;;;;;;;;;;;;;5.42;100.00;98983.22;5282060;27;20265;-88
2024/04/15 11:22:28;;;;;;;;;;;;;;;5.38;100.00;98975.50;5293554;26;19942;-90
2024/04/15 11:24:54;;;;;;;;;;;;;;;5.51;100.00;98966.28;5310864;27;19969;-87
2024/04/15 11:27:20;;;;;;;;;;;;;;;5.57;100.00;98975.72;5282183;27;19931;-92
2024/04/15 11:29:47;;;;;;;;;;;;;;;5.55;100.00;98965.28;5281703;27;20015;-87
2024/04/15 11:32:12;;;;;;;;;;;;;;;5.57;100.00;98952.94;5311550;27;19959;-87
2024/04/15 11:34:38;;;;;;;;;;;;;;;5.43;100.00;98955.19;5281902;27;19930;-85
2024/04/15 11:37:03;;;;;;;;;;;;;;;5.41;100.00;98946.50;5279731;27;19958;-88
2024/04/15 11:39:28;;;;;;;;;;;;;;;5.37;100.00;98945.72;5312070;27;19930;-87
2024/04/15 11:41:54;;;;;;;;;;;;;;;9.86;100.00;98934.03;5312317;27;19942;-89
2024/04/15 11:44:21;;;;;;;;;;;;;;;15.19;100.00;98912.28;5312137;27;19931;-90
2024/04/15 11:46:47;;;;;;;;;;;;;;;8.88;100.00;98934.63;5311374;27;19936;-86
2024/04/15 11:49:34;;;;;;;;;;;;;;;7.27;100.00;98944.59;5311494;27;19930;-89
2024/04/15 11:52:00;;;;;;;;;;;;;;;6.68;100.00;98943.47;5309263;27;19945;-90
2024/04/15 11:54:31;;;;;;;;;;;;;;;6.46;100.00;98937.38;5280566;27;20262;-89
2024/04/15 11:56:57;;;;;;;;;;;;;;;6.30;100.00;98935.38;5281673;27;19937;-90
2024/04/15 11:59:23;;;;;;;;;;;;;;;6.30;100.00;98938.00;5279079;27;19931;-90
2024/04/15 12:01:48;;;;;;;;;;;;;;;6.15;100.00;98928.06;5311628;27;19996;-90
2024/04/15 12:04:13;;;;;;;;;;;;;;;6.00;100.00;98904.06;5311259;27;20370;-90
2024/04/15 12:06:42;;;;;;;;;;;;;;;5.92;100.00;98900.84;5279708;27;19958;-89
2024/04/15 12:09:08;;;;;;;;;;;;;;;5.86;100.00;98910.72;5310810;27;19930;-90
2024/04/15 12:11:33;;;;;;;;;;;;;;;5.93;100.00;98896.41;5280949;27;19930;-91
2024/04/15 12:13:58;;;;;;;;;;;;;;;5.88;100.00;98890.47;5280030;27;19934;-87
2024/04/15 12:16:24;;;;;;;;;;;;;;;5.90;100.00;98883.38;5310512;27;19931;-88
2024/04/15 12:18:49;;;;;;;;;;;;;;;5.87;100.00;98876.50;5281105;27;19939;-90
2024/04/15 12:21:14;;;;;;;;;;;;;;;5.88;100.00;98877.34;5310110;27;20393;-89
2024/04/15 12:23:40;;;;;;;;;;;;;;;5.74;100.00;98856.81;5280715;27;20333;-90
2024/04/15 12:26:06;;;;;;;;;;;;;;;5.71;100.00;98857.81;5311459;27;19931;-90
2024/04/15 12:28:32;;;;;;;;;;;;;;;5.76;100.00;98847.09;5310707;27;20273;-87
2024/04/15 12:30:57;;;;;;;;;;;;;;;5.63;100.00;98839.69;5311561;27;19931;-89
2024/04/15 12:33:23;;;;;;;;;;;;;;;5.60;100.00;98837.19;5266440;27;19931;-90
2024/04/15 12:35:49;;;;;;;;;;;;;;;5.65;100.00;98837.00;5281150;27;19938;-88
2024/04/15 12:38:15;;;;;;;;;;;;;;;5.64;100.00;98822.16;5295010;27;20440;-89
2024/04/15 12:40:40;;;;;;;;;;;;;;;5.68;100.00;98829.00;5280988;27;19943;-89
2024/04/15 12:43:05;;;;;;;;;;;;;;;5.67;100.00;98829.06;5280823;27;20262;-88
2024/04/15 12:45:34;;;;;;;;;;;;;;;5.70;100.00;98816.66;5279544;27;19941;-92
2024/04/15 12:48:03;;;;;;;;;;;;;;;5.78;100.00;98813.75;5311309;27;20337;-90
2024/04/15 12:50:28;;;;;;;;;;;;;;;5.83;100.00;98803.91;5310030;27;20362;-88
2024/04/15 12:52:53;;;;;;;;;;;;;;;5.65;100.00;98805.47;5308652;27;19990;-88
2024/04/15 12:55:19;;;;;;;;;;;;;;;5.73;100.00;98799.94;5265287;27;20382;-89
2024/04/15 12:57:44;;;;;;;;;;;;;;;5.77;100.00;98802.34;5279284;27;19937;-90
2024/04/15 13:00:10;;;;;;;;;;;;;;;5.69;100.00;98791.28;5279651;27;19999;-89
2024/04/15 13:02:38;;;;;;;;;;;;;;;5.68;100.00;98780.81;5279748;27;19931;-91
2024/04/15 13:05:04;;;;;;;;;;;;;;;5.64;100.00;98796.72;5280246;27;19931;-91
2024/04/15 13:07:29;;;;;;;;;;;;;;;5.65;100.00;98776.56;5278795;27;20374;-86
2024/04/15 13:09:54;;;;;;;;;;;;;;;5.75;100.00;98798.09;5310377;27;20414;-89
2024/04/15 13:12:20;;;;;;;;;;;;;;;5.69;100.00;98787.81;5280361;27;19957;-88
2024/04/15 13:14:45;;;;;;;;;;;;;;;5.68;100.00;98783.44;5280538;27;19938;-89
2024/04/15 13:17:10;;;;;;;;;;;;;;;5.73;100.00;98765.75;5278303;27;19932;-89
2024/04/15 13:19:36;;;;;;;;;;;;;;;5.83;100.00;98764.47;5279120;27;20279;-90
2024/04/15 13:22:01;;;;;;;;;;;;;;;5.80;100.00;98765.44;5279036;27;20273;-90
2024/04/15 13:24:26;;;;;;;;;;;;;;;5.73;100.00;98752.63;5294237;27;19938;-89
2024/04/15 13:27:01;;;;;;;;;;;;;;;;;;;;;
2024/04/15 13:29:30;;;;;;;;;;;;;;;5.88;100.00;98761.66;5311630;27;19931;-90
2024/04/15 13:31:55;;;;;;;;;;;;;;;5.81;100.00;98746.13;5307245;27;20325;-90
2024/04/15 13:34:20;;;;;;;;;;;;;;;5.73;100.00;98752.63;5313000;27;19938;-91
2024/04/15 13:36:48;;;;;;;;;;;;;;;5.75;100.00;98751.63;5281104;27;19942;-87
2024/04/15 13:39:13;;;;;;;;;;;;;;;5.63;100.00;98749.47;5313179;27;20376;-90
2024/04/15 13:41:39;;;;;;;;;;;;;;;5.63;100.00;98747.72;5283136;27;19934;-89
2024/04/15 13:44:04;;;;;;;;;;;;;;;5.55;100.00;98748.91;5297814;26;19930;-89
2024/04/15 13:46:29;;;;;;;;;;;;;;;5.40;100.00;98750.38;5282568;27;19942;-89
2024/04/15 13:48:55;;;;;;;;;;;;;;;5.56;100.00;98754.09;5313174;27;19937;-90
2024/04/15 13:51:20;;;;;;;;;;;;;;;5.64;100.00;98731.00;5281799;27;20346;-89
2024/04/15 13:53:45;;;;;;;;;;;;;;;5.71;100.00;98743.91;5282943;27;19965;-90
2024/04/15 13:56:11;;;;;;;;;;;;;;;5.50;100.00;98746.47;5312761;27;19930;-87
2024/04/15 13:58:37;;;;;;;;;;;;;;;5.35;100.00;98739.19;5313172;27;19930;-90
2024/04/15 14:01:05;;;;;;;;;;;;;;;5.42;100.00;98748.53;5282538;27;20267;-89
2024/04/15 14:03:30;;;;;;;;;;;;;;;5.38;100.00;98737.28;5312641;27;20287;-87
2024/04/15 14:05:56;;;;;;;;;;;;;;;5.32;100.00;98736.66;5282603;27;19930;-89
2024/04/15 14:08:21;;;;;;;;;;;;;;;5.35;100.00;98731.31;5281725;27;19935;-88
2024/04/15 14:10:47;;;;;;;;;;;;;;;5.28;100.00;98721.03;5305828;27;20350;-88
2024/04/15 14:13:12;;;;;;;;;;;;;;;5.44;100.00;98725.66;5282653;27;20005;-88
2024/04/15 14:15:38;;;;;;;;;;;;;;;5.40;100.00;98743.34;5282305;27;19946;-91
2024/04/15 14:18:03;;;;;;;;;;;;;;;5.21;100.00;98724.78;5282702;27;20000;-88
2024/04/15 14:20:29;;;;;;;;;;;;;;;5.21;100.00;98719.53;5313041;27;19946;-86
2024/04/15 14:22:55;;;;;;;;;;;;;;;5.33;100.00;98734.00;5310196;27;19930;-91
2024/04/15 14:25:23;;;;;;;;;;;;;;;5.38;100.00;98734.66;5282219;27;20269;-91
2024/04/15 14:27:48;;;;;;;;;;;;;;;5.37;100.00;98724.22;5282403;27;20361;-90
2024/04/15 14:30:14;;;;;;;;;;;;;;;5.25;100.00;98712.41;5312642;27;19931;-90
2024/04/15 14:32:39;;;;;;;;;;;;;;;5.18;100.00;98727.53;5282241;27;19935;-90
2024/04/15 14:35:04;;;;;;;;;;;;;;;5.15;100.00;98711.88;5282717;27;19931;-86
2024/04/15 14:37:29;;;;;;;;;;;;;;;5.18;100.00;98685.50;5280519;27;19937;-88
2024/04/15 14:39:55;;;;;;;;;;;;;;;5.35;100.00;98678.78;5281909;27;20290;-92
2024/04/15 14:42:21;;;;;;;;;;;;;;;5.32;100.00;98697.28;5294966;27;19937;-90
2024/04/15 14:44:47;;;;;;;;;;;;;;;5.32;100.00;98689.38;5280513;27;19937;-91
2024/04/15 14:47:12;;;;;;;;;;;;;;;5.56;100.00;98677.91;5281648;27;19931;-89
2024/04/15 14:49:37;;;;;;;;;;;;;;;5.52;100.00;98681.59;5282141;27;19937;-90
2024/04/15 14:52:03;;;;;;;;;;;;;;;5.41;100.00;98673.28;5280949;27;19939;-92
2024/04/15 14:54:28;;;;;;;;;;;;;;;5.27;100.00;98677.28;5281159;27;20001;-90
2024/04/15 14:56:55;;;;;;;;;;;;;;;5.33;100.00;98654.31;5281612;27;19930;-91
2024/04/15 14:59:20;;;;;;;;;;;;;;;5.35;100.00;98663.84;5282142;27;20278;-91
2024/04/15 15:01:46;;;;;;;;;;;;;;;5.25;100.00;98658.09;5306422;27;19930;-91
2024/04/15 15:04:12;;;;;;;;;;;;;;;5.15;100.00;98648.84;5311471;27;19942;-90
2024/04/15 15:06:37;;;;;;;;;;;;;;;5.22;100.00;98647.72;5280536;27;20001;-86
2024/04/15 15:09:05;;;;;;;;;;;;;;;5.31;100.00;98656.16;5312317;27;20001;-89
2024/04/15 15:11:31;;;;;;;;;;;;;;;5.33;100.00;98638.53;5311247;27;19938;-90
2024/04/15 15:13:57;;;;;;;;;;;;;;;5.42;100.00;98635.56;5311881;27;20383;-89
2024/04/15 15:16:22;;;;;;;;;;;;;;;5.51;100.00;98632.56;5281811;27;19931;-89
2024/04/15 15:18:47;;;;;;;;;;;;;;;5.42;100.00;98625.91;5312487;27;19930;-89
2024/04/15 15:21:12;;;;;;;;;;;;;;;5.39;100.00;98619.91;5280400;27;19938;-90
2024/04/15 15:23:38;;;;;;;;;;;;;;;5.41;100.00;98610.22;5311557;27;19931;-90
2024/04/15 15:26:03;;;;;;;;;;;;;;;5.36;100.00;98617.41;5311823;27;20000;-90
2024/04/15 15:28:29;;;;;;;;;;;;;;;5.40;100.00;98603.25;5282111;27;19930;-90
2024/04/15 15:30:54;;;;;;;;;;;;;;;5.33;100.00;98617.53;5295364;27;20259;-90
2024/04/15 15:33:19;;;;;;;;;;;;;;;5.36;100.00;98609.53;5311729;27;20369;-89
2024/04/15 15:35:45;;;;;;;;;;;;;;;5.28;100.00;98599.31;5311987;27;19930;-90
2024/04/15 15:38:11;;;;;;;;;;;;;;;5.25;100.00;98600.31;5279078;27;20002;-89
2024/04/15 15:40:36;;;;;;;;;;;;;;;5.15;100.00;98609.47;5311940;27;20369;-89
2024/04/15 15:43:01;;;;;;;;;;;;;;;5.26;100.00;98616.94;5311427;27;19942;-85
2024/04/15 15:45:28;;;;;;;;;;;;;;;5.19;100.00;98621.56;5311875;27;19937;-89
2024/04/15 15:47:53;;;;;;;;;;;;;;;5.37;100.00;98606.00;5311563;27;19962;-87
2024/04/15 15:50:21;;;;;;;;;;;;;;;5.31;100.00;98620.22;5275854;27;19930;-87
2024/04/15 15:52:47;;;;;;;;;;;;;;;5.45;100.00;98611.78;5308925;27;19931;-90
2024/04/15 15:55:12;;;;;;;;;;;;;;;5.63;100.00;98602.28;5309820;27;19931;-86
2024/04/15 15:57:38;;;;;;;;;;;;;;;5.57;100.00;98607.81;5281327;27;19937;-89
2024/04/15 16:00:04;;;;;;;;;;;;;;;5.38;100.00;98579.66;5280991;27;19972;-87
2024/04/15 16:02:29;;;;;;;;;;;;;;;5.48;100.00;98571.41;5311218;27;20048;-89
2024/04/15 16:04:56;;;;;;;;;;;;;;;5.26;100.00;98565.28;5311483;27;19950;-90
2024/04/15 16:07:21;;;;;;;;;;;;;;;5.26;100.00;98549.50;5280249;27;20368;-90
2024/04/15 16:09:46;;;;;;;;;;;;;;;5.26;100.00;98533.75;5281238;27;19930;-83
2024/04/15 16:12:11;;;;;;;;;;;;;;;5.08;100.00;98531.88;5311619;27;20273;-90
2024/04/15 16:14:37;;;;;;;;;;;;;;;5.18;100.00;98542.84;5311734;27;20267;-90
2024/04/15 16:17:02;;;;;;;;;;;;;;;5.16;100.00;98584.09;5281357;27;19938;-90
2024/04/15 16:19:27;;;;;;;;;;;;;;;5.33;100.00;98649.06;5311589;27;20318;-90
2024/04/15 16:21:53;;;;;;;;;;;;;;;5.85;100.00;98710.03;5310151;27;19943;-90
2024/04/15 16:24:18;;;;;;;;;;;;;;;5.73;100.00;98726.31;5281295;27;19934;-91
2024/04/15 16:26:43;;;;;;;;;;;;;;;5.80;100.00;98748.81;5311340;27;19934;-90
2024/04/15 16:29:09;;;;;;;;;;;;;;;5.82;100.00;98754.84;5281120;27;19931;-90
2024/04/15 16:31:34;;;;;;;;;;;;;;;5.84;100.00;98755.66;5280894;27;19931;-84
2024/04/15 16:33:59;;;;;;;;;;;;;;;5.79;100.00;98791.78;5311192;27;20000;-90
2024/04/15 16:36:27;;;;;;;;;;;;;;;5.54;100.00;98802.41;5309720;27;20030;-90
2024/04/15 16:38:52;;;;;;;;;;;;;;;5.56;100.00;98809.28;5280760;27;19930;-89
2024/04/15 16:41:17;;;;;;;;;;;;;;;5.70;100.00;98806.16;5281023;27;19937;-88
2024/04/15 16:43:43;;;;;;;;;;;;;;;5.70;100.00;98823.69;5280501;27;19931;-88
2024/04/15 16:46:08;;;;;;;;;;;;;;;5.59;100.00;98867.00;5310839;27;19934;-86
2024/04/15 16:48:34;;;;;;;;;;;;;;;5.61;100.00;98849.38;5310965;27;19930;-87
2024/04/15 16:50:59;;;;;;;;;;;;;;;5.44;100.00;98836.03;5310605;27;19931;-89
2024/04/15 16:53:26;;;;;;;;;;;;;;;5.41;100.00;98842.25;5309716;27;19930;-88
2024/04/15 16:55:52;;;;;;;;;;;;;;;5.24;100.00;98829.72;5310681;27;19942;-89
2024/04/15 16:58:17;;;;;;;;;;;;;;;5.25;100.00;98857.72;5279612;27;19935;-87
2024/04/15 17:00:42;;;;;;;;;;;;;;;5.23;100.00;98846.44;5282783;27;20370;-92
2024/04/15 17:03:07;;;;;;;;;;;;;;;5.20;100.00;98841.28;5280866;27;19937;-90
2024/04/15 17:05:35;;;;;;;;;;;;;;;5.20;100.00;98853.53;5310717;27;19931;-87
2024/04/15 17:08:01;;;;;;;;;;;;;;;5.25;100.00;98851.63;5309260;27;20000;-88
2024/04/15 17:10:28;;;;;;;;;;;;;;;5.26;100.00;98859.44;5280560;27;20363;-90
2024/04/15 17:12:54;;;;;;;;;;;;;;;5.27;100.00;98855.88;5310512;27;19939;-88
2024/04/15 17:15:19;;;;;;;;;;;;;;;5.06;100.00;98856.69;5280267;27;19937;-87
2024/04/15 17:17:44;;;;;;;;;;;;;;;5.16;100.00;98862.47;5280068;27;20266;-89
2024/04/15 17:20:10;;;;;;;;;;;;;;;5.06;100.00;98857.53;5310567;27;20267;-89
2024/04/15 17:22:35;;;;;;;;;;;;;;;4.86;100.00;98852.94;5278673;27;20365;-89
2024/04/15 17:25:00;;;;;;;;;;;;;;;4.98;100.00;98850.81;5280149;27;20433;-88
2024/04/15 17:27:28;;;;;;;;;;;;;;;4.97;100.00;98841.25;5310395;27;19930;-88
2024/04/15 17:29:56;;;;;;;;;;;;;;;5.01;100.00;98855.94;5294095;27;20673;-91
2024/04/15 17:32:26;;;;;;;;;;;;;;;4.99;100.00;98868.28;5279795;27;20366;-89
2024/04/15 17:34:51;;;;;;;;;;;;;;;4.95;100.00;98888.53;5310280;27;19938;-89
2024/04/15 17:37:17;;;;;;;;;;;;;;;5.02;100.00;98891.81;5277873;27;19934;-89
2024/04/15 17:39:42;;;;;;;;;;;;;;;4.96;100.00;98897.28;5279954;27;19938;-90
2024/04/15 17:42:07;;;;;;;;;;;;;;;4.95;100.00;98885.06;5293563;27;20418;-89
2024/04/15 17:44:35;;;;;;;;;;;;;;;4.88;100.00;98885.28;5294122;27;20270;-90
2024/04/15 17:47:03;;;;;;;;;;;;;;;4.76;100.00;98883.06;5308630;27;20283;-91
2024/04/15 17:49:29;;;;;;;;;;;;;;;4.79;100.00;98864.59;5310058;27;20424;-84
2024/04/15 17:51:54;;;;;;;;;;;;;;;4.74;100.00;98866.50;5308421;27;19938;-87
2024/04/15 17:54:19;;;;;;;;;;;;;;;4.67;100.00;98875.47;5279433;27;19931;-89
2024/04/15 17:56:44;;;;;;;;;;;;;;;4.82;100.00;98901.22;5309929;27;19931;-90
2024/04/15 17:59:10;;;;;;;;;;;;;;;4.68;100.00;98892.97;5279335;27;20001;-90
2024/04/15 18:01:54;;;;;;;;;;;;;;;4.78;100.00;98907.47;5309942;27;19990;-89
2024/04/15 18:04:20;;;;;;;;;;;;;;;4.76;100.00;98893.56;5309497;27;19970;-89
2024/04/15 18:06:45;;;;;;;;;;;;;;;4.65;100.00;98901.78;5277577;27;19934;-90
2024/04/15 18:09:11;;;;;;;;;;;;;;;4.61;100.00;98889.69;5309735;27;20402;-90
2024/04/15 18:11:36;;;;;;;;;;;;;;;4.75;100.00;98891.81;5279070;27;19937;-89
2024/04/15 18:14:01;;;;;;;;;;;;;;;4.70;100.00;98901.63;5309548;27;19930;-92
2024/04/15 18:16:27;;;;;;;;;;;;;;;4.65;100.00;98887.81;5282699;27;19941;-92
2024/04/15 18:18:52;;;;;;;;;;;;;;;4.58;100.00;98889.78;5311136;27;19935;-87
2024/04/15 18:21:17;;;;;;;;;;;;;;;4.59;100.00;98888.00;5311417;27;20278;-90
2024/04/15 18:23:43;;;;;;;;;;;;;;;4.60;100.00;98890.56;5312851;27;20063;-91
2024/04/15 18:26:11;;;;;;;;;;;;;;;4.62;100.00;98878.25;5312686;27;19941;-89
2024/04/15 18:28:38;;;;;;;;;;;;;;;4.58;100.00;98891.53;5312798;27;20001;-86
2024/04/15 18:31:03;;;;;;;;;;;;;;;4.53;100.00;98910.91;5311318;27;20013;-89
2024/04/15 18:33:31;;;;;;;;;;;;;;;4.56;100.00;98917.81;5312662;27;19938;-87
2024/04/15 18:35:56;;;;;;;;;;;;;;;4.57;100.00;98905.56;5282647;27;20001;-88
2024/04/15 18:38:29;;;;;;;;;;;;;;;4.51;100.00;98906.63;5281195;27;19938;-91
2024/04/15 18:40:57;;;;;;;;;;;;;;;4.57;100.00;98910.81;5311259;27;20240;-89
2024/04/15 18:43:22;;;;;;;;;;;;;;;4.55;100.00;98903.84;5282470;27;20358;-89
2024/04/15 18:45:51;;;;;;;;;;;;;;;4.56;100.00;98896.81;5312631;27;19938;-89
2024/04/15 18:48:16;;;;;;;;;;;;;;;4.66;100.00;98892.13;5281391;27;19935;-88
2024/04/15 18:50:41;;;;;;;;;;;;;;;4.53;100.00;98884.69;5312486;27;19931;-88
2024/04/15 18:53:06;;;;;;;;;;;;;;;4.51;100.00;98898.75;5310523;27;19930;-88
2024/04/15 18:55:32;;;;;;;;;;;;;;;4.51;100.00;98906.63;5281946;27;19938;-90
2024/04/15 18:57:57;;;;;;;;;;;;;;;4.54;100.00;98901.28;5312448;27;20601;-89
2024/04/15 19:00:22;;;;;;;;;;;;;;;4.50;100.00;98907.50;5312175;27;19934;-89
2024/04/15 19:02:52;;;;;;;;;;;;;;;4.49;100.00;98913.69;5282138;27;19934;-90
2024/04/15 19:05:18;;;;;;;;;;;;;;;4.48;100.00;98907.59;5312407;27;19931;-85
2024/04/15 19:07:46;;;;;;;;;;;;;;;4.45;100.00;98912.06;5280436;27;19939;-93
2024/04/15 19:10:12;;;;;;;;;;;;;;;4.52;100.00;98914.44;5281756;27;20486;-90
2024/04/15 19:12:37;;;;;;;;;;;;;;;4.56;100.00;98899.44;5296420;27;19931;-90
2024/04/15 19:15:02;;;;;;;;;;;;;;;4.52;100.00;98921.47;5312108;27;19939;-90
2024/04/15 19:17:35;;;;;;;;;;;;;;;4.50;100.00;98921.50;5282190;27;20001;-90
2024/04/15 19:20:08;;;;;;;;;;;;;;;4.43;100.00;98933.09;5311702;27;19931;-91
2024/04/15 19:22:41;;;;;;;;;;;;;;;4.48;100.00;98925.06;5310473;27;20366;-90
2024/04/15 19:25:06;;;;;;;;;;;;;;;4.53;100.00;98921.41;5311926;27;19943;-91
2024/04/15 19:27:48;;;;;;;;;;;;;;;4.55;100.00;98929.22;5281199;27;19935;-90
2024/04/15 19:30:14;;;;;;;;;;;;;;;4.53;100.00;98942.41;5311107;27;19934;-90
2024/04/15 19:32:39;;;;;;;;;;;;;;;4.50;100.00;98944.25;5311925;27;19942;-90
2024/04/15 19:35:22;;;;;;;;;;;;;;;4.55;100.00;98937.09;5311561;27;20000;-92
2024/04/15 19:37:47;;;;;;;;;;;;;;;4.53;100.00;98945.03;5278173;27;20007;-90
2024/04/15 19:40:12;;;;;;;;;;;;;;;4.54;100.00;98949.34;5311141;27;19939;-90
2024/04/15 19:42:38;;;;;;;;;;;;;;;4.59;100.00;98943.09;5311929;27;19938;-90
2024/04/15 19:45:03;;;;;;;;;;;;;;;4.51;100.00;98945.97;5311687;27;20299;-89
2024/04/15 19:50:39;;;;;;;;;;;;;;;4.50;100.00;98945.13;5311458;27;19931;-89
2024/04/15 19:53:04;;;;;;;;;;;;;;;4.53;100.00;98931.91;5294746;27;19930;-90
2024/04/15 19:55:32;;;;;;;;;;;;;;;4.59;100.00;98941.31;5311457;27;20390;-91
2024/04/15 19:57:57;;;;;;;;;;;;;;;4.53;100.00;98944.16;5280950;27;20351;-88
2024/04/15 20:00:22;;;;;;;;;;;;;;;4.64;100.00;98949.94;5311470;27;19943;-90
2024/04/15 20:02:48;;;;;;;;;;;;;;;4.52;100.00;98948.53;5280998;27;19946;-88
2024/04/15 20:05:13;;;;;;;;;;;;;;;4.57;100.00;98939.69;5310766;27;20278;-88
2024/04/15 20:07:40;;;;;;;;;;;;;;;4.58;100.00;98934.38;5278773;27;19961;-85
2024/04/15 20:10:07;;;;;;;;;;;;;;;4.55;100.00;98930.09;5310888;27;19931;-88
2024/04/15 20:12:32;;;;;;;;;;;;;;;4.64;100.00;98936.81;5310948;27;19930;-84
2024/04/15 20:14:58;;;;;;;;;;;;;;;4.63;100.00;98931.63;5280205;27;19930;-84
2024/04/15 20:17:29;;;;;;;;;;;;;;;4.63;100.00;98918.50;5280023;27;19931;-91
2024/04/15 20:20:01;;;;;;;;;;;;;;;4.61;100.00;98922.91;5280912;27;19934;-88
2024/04/15 20:22:27;;;;;;;;;;;;;;;4.63;100.00;98916.72;5279441;27;20001;-90
2024/04/15 20:24:52;;;;;;;;;;;;;;;4.69;100.00;98913.91;5251175;27;19931;-87
2024/04/15 20:27:17;;;;;;;;;;;;;;;4.64;100.00;98905.34;5311017;27;19959;-89
2024/04/15 20:29:43;;;;;;;;;;;;;;;4.61;100.00;98910.69;5280910;27;19985;-89
2024/04/15 20:32:08;;;;;;;;;;;;;;;4.61;100.00;98922.91;5310621;27;19935;-89
2024/04/15 20:34:34;;;;;;;;;;;;;;;4.55;100.00;98930.09;5310826;27;20374;-90
2024/04/15 20:37:00;;;;;;;;;;;;;;;4.57;100.00;98937.06;5279106;27;19930;-89
2024/04/15 20:39:25;;;;;;;;;;;;;;;4.59;100.00;98937.84;5311073;27;20258;-88